Time;durP1;ratioP1;P1;durP2;ratioP2;P2;SDS_P1;SDS_P2;PMS_P1;PMS_P2;Temp;Humidity;BMP_temperature;BMP_pressure;BME280_temperature;BME280_humidity;BME280_pressure;Samples;Min_cycle;Max_cycle;Signal;HPM_P1;HPM_P2
2022/04/14 00:02:05;;;;;;;2.55;1.38;;;;;;;-143.85;100.00;70650.75;5092108;28;20020;-86
2022/04/14 00:04:35;;;;;;;3.67;2.08;;;;;;;-143.85;100.00;70650.75;5094825;28;20086;-87
2022/04/14 00:07:00;;;;;;;5.55;2.22;;;;;;;-143.85;100.00;70650.75;5096810;28;20479;-86
2022/04/14 00:09:27;;;;;;;3.42;2.17;;;;;;;-143.85;100.00;70650.75;5095921;28;20038;-86
2022/04/14 00:11:52;;;;;;;2.17;1.85;;;;;;;-143.85;100.00;70650.75;5095735;28;20472;-87
2022/04/14 00:14:17;;;;;;;3.67;1.40;;;;;;;-143.85;100.00;70650.75;5095811;28;20027;-87
2022/04/14 00:16:43;;;;;;;6.43;1.85;;;;;;;-143.85;100.00;70650.75;5095838;28;20475;-87
2022/04/14 00:19:08;;;;;;;4.13;1.42;;;;;;;-143.85;100.00;70650.75;5095794;28;20027;-86
2022/04/14 00:21:34;;;;;;;2.08;1.88;;;;;;;-143.85;100.00;70650.75;5095198;28;20031;-86
2022/04/14 00:23:59;;;;;;;2.45;2.13;;;;;;;-143.85;100.00;70650.75;5095402;28;20028;-86
2022/04/14 00:26:25;;;;;;;5.80;1.98;;;;;;;-143.85;100.00;70650.75;5096254;28;20020;-86
2022/04/14 00:28:50;;;;;;;2.95;1.17;;;;;;;-143.85;100.00;70650.75;5095683;28;20055;-86
2022/04/14 00:31:16;;;;;;;4.00;1.67;;;;;;;-143.85;100.00;70650.75;5096376;28;20028;-86
2022/04/14 00:33:41;;;;;;;2.80;1.50;;;;;;;-143.85;100.00;70650.75;5095295;28;20024;-86
2022/04/14 00:36:07;;;;;;;4.15;1.85;;;;;;;-143.85;100.00;70650.75;5094818;28;20385;-86
2022/04/14 00:38:32;;;;;;;2.08;1.95;;;;;;;-143.85;100.00;70650.75;5096077;28;20036;-86
2022/04/14 00:40:58;;;;;;;3.15;1.80;;;;;;;-143.85;100.00;70650.75;5095268;28;20054;-86
2022/04/14 00:43:35;;;;;;;4.18;1.95;;;;;;;-143.85;100.00;70650.75;5095086;28;20059;-86
2022/04/14 00:46:02;;;;;;;1.73;1.63;;;;;;;-143.85;100.00;70650.75;5095650;28;20027;-86
2022/04/14 00:48:28;;;;;;;3.78;2.70;;;;;;;-143.85;100.00;70650.75;5095193;28;20046;-86
2022/04/14 00:50:54;;;;;;;2.08;1.75;;;;;;;-143.85;100.00;70650.75;5095031;28;20115;-86
2022/04/14 00:53:22;;;;;;;1.17;1.13;;;;;;;-143.85;100.00;70650.75;5094954;28;20119;-87
2022/04/14 00:55:48;;;;;;;4.82;2.33;;;;;;;-143.85;100.00;70650.75;5094911;28;20475;-86
2022/04/14 00:58:13;;;;;;;2.60;1.65;;;;;;;-143.85;100.00;70650.75;5095750;28;20502;-87
2022/04/14 01:00:39;;;;;;;3.15;2.33;;;;;;;-143.85;100.00;70650.75;5094849;28;20032;-87
2022/04/14 01:03:05;;;;;;;4.43;1.75;;;;;;;-143.85;100.00;70650.75;5094652;28;20020;-86
2022/04/14 01:05:31;;;;;;;2.35;1.77;;;;;;;-143.85;100.00;70650.75;5094599;28;20025;-87
2022/04/14 01:07:58;;;;;;;3.05;2.03;;;;;;;-143.85;100.00;70650.75;5094638;28;20498;-87
2022/04/14 01:10:25;;;;;;;2.38;2.17;;;;;;;-143.85;100.00;70650.75;5094775;28;20032;-87
2022/04/14 01:12:52;;;;;;;3.95;2.83;;;;;;;-143.85;100.00;70650.75;5094816;28;20032;-87
2022/04/14 01:15:18;;;;;;;4.28;2.25;;;;;;;-143.85;100.00;70650.75;5093332;28;20024;-87
2022/04/14 01:17:43;;;;;;;2.03;1.45;;;;;;;-143.85;100.00;70650.75;5094426;28;20027;-86
2022/04/14 01:20:11;;;;;;;3.63;1.50;;;;;;;-143.85;100.00;70650.75;5094187;28;20484;-86
2022/04/14 01:22:43;;;;;;;3.42;2.17;;;;;;;-143.85;100.00;70650.75;5095764;28;20020;-87
2022/04/14 01:25:09;;;;;;;2.88;1.50;;;;;;;-143.85;100.00;70650.75;5095444;28;20372;-87
2022/04/14 01:27:34;;;;;;;2.17;1.75;;;;;;;-143.85;100.00;70650.75;5094371;28;20020;-87
2022/04/14 01:30:00;;;;;;;5.07;1.98;;;;;;;-143.85;100.00;70650.75;5094004;28;20122;-88
2022/04/14 01:32:26;;;;;;;2.03;1.10;;;;;;;-143.85;100.00;70650.75;5095234;28;20032;-89
2022/04/14 01:34:52;;;;;;;1.73;0.95;;;;;;;-143.85;100.00;70650.75;5094272;28;20031;-88
2022/04/14 01:37:17;;;;;;;3.85;1.83;;;;;;;-143.85;100.00;70650.75;5094232;28;20471;-87
2022/04/14 01:39:43;;;;;;;1.55;1.45;;;;;;;-143.85;100.00;70650.75;5093854;28;20167;-87
2022/04/14 01:42:09;;;;;;;5.85;3.17;;;;;;;-143.85;100.00;70650.75;5093906;28;20035;-87
2022/04/14 01:44:35;;;;;;;1.02;1.02;;;;;;;-143.85;100.00;70650.75;5093973;28;20407;-87
2022/04/14 01:47:00;;;;;;;4.40;1.60;;;;;;;-143.85;100.00;70650.75;5094135;28;20031;-87
2022/04/14 01:49:26;;;;;;;1.38;1.27;;;;;;;-143.85;100.00;70650.75;5094383;28;20514;-87
2022/04/14 01:51:51;;;;;;;3.30;2.05;;;;;;;-143.85;100.00;70650.75;5093958;28;20030;-87
2022/04/14 01:54:17;;;;;;;4.45;1.65;;;;;;;-143.85;100.00;70650.75;5093816;28;20399;-86
2022/04/14 01:56:44;;;;;;;1.95;1.77;;;;;;;-143.85;100.00;70650.75;5094738;28;20069;-87
2022/04/14 01:59:10;;;;;;;3.53;1.75;;;;;;;-143.85;100.00;70650.75;5093447;28;20564;-86
2022/04/14 02:01:36;;;;;;;2.05;1.70;;;;;;;-143.85;100.00;70650.75;5093521;28;20104;-86
2022/04/14 02:04:07;;;;;;;1.20;1.05;;;;;;;-143.85;100.00;70650.75;5093482;28;20028;-87
2022/04/14 02:06:33;;;;;;;2.50;1.45;;;;;;;-143.85;100.00;70650.75;5093450;28;20027;-87
2022/04/14 02:08:58;;;;;;;3.13;1.58;;;;;;;-143.85;100.00;70650.75;5093155;28;20032;-87
2022/04/14 02:11:24;;;;;;;1.52;1.25;;;;;;;-143.85;100.00;70650.75;5093362;28;20028;-87
2022/04/14 02:13:49;;;;;;;0.90;0.90;;;;;;;-143.85;100.00;70650.75;5093376;28;20036;-87
2022/04/14 02:16:15;;;;;;;3.70;1.55;;;;;;;-143.85;100.00;70650.75;5092902;28;20048;-87
2022/04/14 02:18:42;;;;;;;2.33;1.52;;;;;;;-143.85;100.00;70650.75;5093449;28;20059;-86
2022/04/14 02:21:07;;;;;;;2.63;1.60;;;;;;;-143.85;100.00;70650.75;5093448;28;20080;-87
2022/04/14 02:23:33;;;;;;;2.58;1.35;;;;;;;-143.85;100.00;70650.75;5093066;28;20028;-87
2022/04/14 02:25:58;;;;;;;0.73;0.73;;;;;;;-143.85;100.00;70650.75;5092865;28;20029;-87
2022/04/14 02:28:24;;;;;;;1.85;1.75;;;;;;;-143.85;100.00;70650.75;5093729;28;20028;-87
2022/04/14 02:30:49;;;;;;;4.53;1.30;;;;;;;-143.85;100.00;70650.75;5093035;28;20020;-87
2022/04/14 02:33:15;;;;;;;1.15;1.05;;;;;;;-143.85;100.00;70650.75;5093153;28;20062;-87
2022/04/14 02:35:41;;;;;;;2.08;1.00;;;;;;;-143.85;100.00;70650.75;5093099;28;20081;-86
2022/04/14 02:38:06;;;;;;;1.67;1.30;;;;;;;-143.85;100.00;70650.75;5093035;28;20024;-87
2022/04/14 02:40:32;;;;;;;7.13;2.47;;;;;;;-143.85;100.00;70650.75;5094989;28;20048;-87
2022/04/14 02:42:57;;;;;;;2.38;1.85;;;;;;;-143.85;100.00;70650.75;5092936;28;20110;-86
2022/04/14 02:45:24;;;;;;;1.92;1.77;;;;;;;-143.85;100.00;70650.75;5092849;28;20024;-85
2022/04/14 02:47:51;;;;;;;5.20;2.13;;;;;;;-143.85;100.00;70650.75;5092732;28;20028;-87
2022/04/14 02:50:16;;;;;;;3.15;2.00;;;;;;;-143.85;100.00;70650.75;5092785;28;20081;-87
2022/04/14 02:52:42;;;;;;;1.58;1.48;;;;;;;-143.85;100.00;70650.75;5093944;28;20020;-87
2022/04/14 02:55:09;;;;;;;1.20;1.05;;;;;;;-143.85;100.00;70650.75;5092570;28;20024;-87
2022/04/14 02:57:35;;;;;;;2.10;1.40;;;;;;;-143.85;100.00;70650.75;5092580;28;20045;-87
2022/04/14 03:00:01;;;;;;;9.00;1.70;;;;;;;-143.85;100.00;70650.75;5093649;28;20115;-89
2022/04/14 03:02:27;;;;;;;3.08;1.52;;;;;;;-143.85;100.00;70650.75;5092508;28;20046;-88
2022/04/14 03:04:53;;;;;;;15.68;1.73;;;;;;;-143.85;100.00;70650.75;5092702;28;20542;-88
2022/04/14 03:07:19;;;;;;;1.83;1.67;;;;;;;-143.85;100.00;70650.75;5092568;28;20048;-88
2022/04/14 03:09:45;;;;;;;1.05;1.00;;;;;;;-143.85;100.00;70650.75;5093528;28;20040;-88
2022/04/14 03:12:11;;;;;;;6.35;2.13;;;;;;;-143.85;100.00;70650.75;5092651;28;20115;-88
2022/04/14 03:14:37;;;;;;;1.67;1.58;;;;;;;-143.85;100.00;70650.75;5093242;28;20513;-87
2022/04/14 03:17:03;;;;;;;1.45;1.35;;;;;;;-143.85;100.00;70650.75;5093004;28;20047;-87
2022/04/14 03:19:29;;;;;;;2.38;1.48;;;;;;;-143.85;100.00;70650.75;5093747;28;20046;-87
2022/04/14 03:21:54;;;;;;;2.88;2.08;;;;;;;-143.85;100.00;70650.75;5092339;28;20024;-87
2022/04/14 03:24:20;;;;;;;3.28;1.33;;;;;;;-143.85;100.00;70650.75;5092146;28;20042;-87
2022/04/14 03:26:45;;;;;;;3.00;1.58;;;;;;;-143.85;100.00;70650.75;5092311;28;20027;-86
2022/04/14 03:29:10;;;;;;;1.65;1.10;;;;;;;-143.85;100.00;70650.75;5092158;28;20126;-88
2022/04/14 03:31:36;;;;;;;2.85;2.00;;;;;;;-143.85;100.00;70650.75;5092825;28;20020;-88
2022/04/14 03:34:01;;;;;;;1.08;0.98;;;;;;;-143.85;100.00;70650.75;5092205;28;20036;-87
2022/04/14 03:36:27;;;;;;;2.40;0.98;;;;;;;-143.85;100.00;70650.75;5092544;28;20023;-89
2022/04/14 03:38:52;;;;;;;1.23;1.05;;;;;;;-143.85;100.00;70650.75;5093641;28;20101;-88
2022/04/14 03:41:18;;;;;;;0.80;0.80;;;;;;;-143.85;100.00;70650.75;5096419;28;20031;-89
2022/04/14 03:43:43;;;;;;;2.17;2.05;;;;;;;-143.85;100.00;70650.75;5097143;28;20034;-88
2022/04/14 03:46:09;;;;;;;9.60;1.77;;;;;;;-143.85;100.00;70650.75;5096259;28;20053;-87
2022/04/14 03:48:34;;;;;;;1.52;1.42;;;;;;;-143.85;100.00;70650.75;5096136;28;20024;-86
2022/04/14 03:51:00;;;;;;;1.83;0.95;;;;;;;-143.85;100.00;70650.75;5096434;28;20028;-87
2022/04/14 03:53:26;;;;;;;13.50;1.27;;;;;;;-143.85;100.00;70650.75;5096167;28;20101;-86
2022/04/14 03:55:51;;;;;;;1.30;1.20;;;;;;;-143.85;100.00;70650.75;5095739;28;20024;-89
2022/04/14 03:58:17;;;;;;;12.63;0.93;;;;;;;-143.85;100.00;70650.75;5095973;28;20039;-88
2022/04/14 04:00:43;;;;;;;3.35;1.73;;;;;;;-143.85;100.00;70650.75;5096022;28;20546;-86
2022/04/14 04:03:12;;;;;;;2.03;1.85;;;;;;;-143.85;100.00;70650.75;5095868;28;20031;-86
2022/04/14 04:05:38;;;;;;;2.97;1.17;;;;;;;-143.85;100.00;70650.75;5096409;28;20559;-88
2022/04/14 04:08:07;;;;;;;1.63;1.52;;;;;;;-143.85;100.00;70650.75;5096860;28;20061;-88
2022/04/14 04:10:33;;;;;;;6.20;3.33;;;;;;;-143.85;100.00;70650.75;5096298;28;20360;-88
2022/04/14 04:12:58;;;;;;;1.52;1.42;;;;;;;-143.85;100.00;70650.75;5095648;28;20035;-88
2022/04/14 04:15:24;;;;;;;2.40;2.20;;;;;;;-143.85;100.00;70650.75;5095583;28;20468;-88
2022/04/14 04:17:53;;;;;;;9.63;3.00;;;;;;;-143.85;100.00;70650.75;5095544;28;20028;-87
2022/04/14 04:20:19;;;;;;;19.10;6.00;;;;;;;-143.85;100.00;70650.75;5095996;28;20020;-88
2022/04/14 04:22:44;;;;;;;10.90;3.72;;;;;;;-143.85;100.00;70650.75;5095595;28;20027;-88
2022/04/14 04:25:10;;;;;;;1.33;1.23;;;;;;;-143.85;100.00;70650.75;5096610;28;20027;-88
2022/04/14 04:27:37;;;;;;;2.60;1.38;;;;;;;-143.85;100.00;70650.75;5095447;28;20052;-87
2022/04/14 04:30:07;;;;;;;2.42;1.75;;;;;;;-143.85;100.00;70650.75;5095425;28;20016;-88
2022/04/14 04:32:33;;;;;;;2.03;1.48;;;;;;;-143.85;100.00;70650.75;5095460;28;20097;-90
2022/04/14 04:35:09;;;;;;;1.42;1.33;;;;;;;-143.85;100.00;70650.75;5096340;28;20020;-88
2022/04/14 04:37:35;;;;;;;3.22;1.77;;;;;;;-143.85;100.00;70650.75;5095871;28;20032;-89
2022/04/14 04:40:01;;;;;;;2.53;1.33;;;;;;;-143.85;100.00;70650.75;5094978;28;20508;-88
2022/04/14 04:42:26;;;;;;;2.95;1.48;;;;;;;-143.85;100.00;70650.75;5095333;28;20445;-89
2022/04/14 04:44:52;;;;;;;5.32;3.05;;;;;;;-143.85;100.00;70650.75;5095047;28;20035;-88
2022/04/14 04:47:20;;;;;;;1.40;1.30;;;;;;;-143.85;100.00;70650.75;5095019;28;20020;-88
2022/04/14 04:49:46;;;;;;;1.92;1.35;;;;;;;-143.85;100.00;70650.75;5095025;28;20039;-88
2022/04/14 04:52:12;;;;;;;3.53;1.38;;;;;;;-143.85;100.00;70650.75;5094992;28;20445;-88
2022/04/14 04:54:37;;;;;;;1.67;1.30;;;;;;;-143.85;100.00;70650.75;5095849;28;20047;-88
2022/04/14 04:57:03;;;;;;;1.08;0.93;;;;;;;-143.85;100.00;70650.75;5094974;28;20119;-88
2022/04/14 04:59:28;;;;;;;1.70;0.90;;;;;;;-143.85;100.00;70650.75;5095730;28;20110;-88
2022/04/14 05:01:54;;;;;;;2.13;1.38;;;;;;;-143.85;100.00;70650.75;5094871;28;20024;-88
2022/04/14 05:04:19;;;;;;;2.47;1.90;;;;;;;-143.85;100.00;70650.75;5094562;28;20039;-89
2022/04/14 05:06:45;;;;;;;0.95;0.95;;;;;;;-143.85;100.00;70650.75;5095244;28;20101;-89
2022/04/14 05:09:10;;;;;;;3.13;1.13;;;;;;;-143.85;100.00;70650.75;5094952;28;20039;-89
2022/04/14 05:11:36;;;;;;;2.55;1.60;;;;;;;-143.85;100.00;70650.75;5095610;28;20046;-89
2022/04/14 05:14:01;;;;;;;1.23;1.00;;;;;;;-143.85;100.00;70650.75;5094351;28;20028;-89
2022/04/14 05:16:27;;;;;;;1.65;1.17;;;;;;;-143.85;100.00;70650.75;5095588;28;20074;-89
2022/04/14 05:18:53;;;;;;;1.45;1.35;;;;;;;-143.85;100.00;70650.75;5094352;28;20065;-84
2022/04/14 05:21:18;;;;;;;3.03;2.30;;;;;;;-143.85;100.00;70650.75;5094212;28;20030;-84
2022/04/14 05:23:43;;;;;;;7.55;2.42;;;;;;;-143.85;100.00;70650.75;5093915;28;20118;-84
2022/04/14 05:26:09;;;;;;;4.15;2.13;;;;;;;-143.85;100.00;70650.75;5093086;28;20127;-84
2022/04/14 05:28:35;;;;;;;5.63;2.35;;;;;;;-143.85;100.00;70650.75;5092639;28;20067;-82
2022/04/14 05:31:01;;;;;;;3.13;2.30;;;;;;;-143.85;100.00;70650.75;5093024;28;20020;-83
2022/04/14 05:33:27;;;;;;;2.65;2.30;;;;;;;-143.85;100.00;70650.75;5092690;28;20035;-85
2022/04/14 05:35:53;;;;;;;3.40;2.92;;;;;;;-143.85;100.00;70650.75;5094239;28;20057;-84
2022/04/14 05:38:18;;;;;;;5.00;2.10;;;;;;;-143.85;100.00;70650.75;5092824;28;20507;-85
2022/04/14 05:40:45;;;;;;;9.77;2.35;;;;;;;-143.85;100.00;70650.75;5092335;28;20055;-85
2022/04/14 05:43:15;;;;;;;4.90;2.55;;;;;;;-143.85;100.00;70650.75;5092635;28;20483;-84
2022/04/14 05:45:44;;;;;;;4.63;2.97;;;;;;;-143.85;100.00;70650.75;5092822;28;20020;-85
2022/04/14 05:48:11;;;;;;;5.15;1.90;;;;;;;-143.85;100.00;70650.75;5093966;28;20065;-85
2022/04/14 05:50:36;;;;;;;2.15;1.70;;;;;;;-143.85;100.00;70650.75;5088248;28;20141;-85
2022/04/14 05:53:01;;;;;;;5.15;2.03;;;;;;;-143.85;100.00;70650.75;5093854;28;20038;-84
2022/04/14 05:55:28;;;;;;;6.47;1.75;;;;;;;-143.85;100.00;70650.75;5093911;28;20035;-84
2022/04/14 05:57:53;;;;;;;1.48;1.30;;;;;;;-143.85;100.00;70650.75;5093954;28;20063;-83
2022/04/14 06:00:19;;;;;;;2.65;1.73;;;;;;;-143.85;100.00;70650.75;5092260;28;20046;-85
2022/04/14 06:02:44;;;;;;;1.80;1.60;;;;;;;-143.85;100.00;70650.75;5091392;28;20024;-84
2022/04/14 06:05:10;;;;;;;2.35;1.15;;;;;;;-143.85;100.00;70650.75;5092402;28;20423;-83
2022/04/14 06:07:35;;;;;;;1.70;1.60;;;;;;;-143.85;100.00;70650.75;5093308;28;20161;-84
2022/04/14 06:10:01;;;;;;;2.35;1.20;;;;;;;-143.85;100.00;70650.75;5092482;28;20028;-84
2022/04/14 06:12:26;;;;;;;1.20;1.05;;;;;;;-143.85;100.00;70650.75;5092292;28;20487;-83
2022/04/14 06:14:52;;;;;;;1.85;1.48;;;;;;;-143.85;100.00;70650.75;5092454;28;20039;-83
2022/04/14 06:17:17;;;;;;;2.75;1.55;;;;;;;-143.85;100.00;70650.75;5091951;28;20035;-84
2022/04/14 06:19:43;;;;;;;2.88;1.50;;;;;;;-143.85;100.00;70650.75;5092460;28;20024;-82
2022/04/14 06:22:08;;;;;;;2.42;1.63;;;;;;;-143.85;100.00;70650.75;5092083;28;20020;-89
2022/04/14 06:24:34;;;;;;;3.35;1.40;;;;;;;-143.85;100.00;70650.75;5092268;28;20154;-84
2022/04/14 06:26:59;;;;;;;3.17;1.27;;;;;;;-143.85;100.00;70650.75;5090408;28;20502;-85
2022/04/14 06:29:25;;;;;;;1.27;0.90;;;;;;;-143.85;100.00;70650.75;5092691;28;20028;-87
2022/04/14 06:31:50;;;;;;;1.45;1.35;;;;;;;-143.85;100.00;70650.75;5093600;28;20016;-83
2022/04/14 06:34:16;;;;;;;2.95;1.33;;;;;;;-143.85;100.00;70650.75;5092535;28;20032;-84
2022/04/14 06:36:41;;;;;;;1.75;1.23;;;;;;;-143.85;100.00;70650.75;5092343;28;20114;-84
2022/04/14 06:39:12;;;;;;;2.65;1.50;;;;;;;-143.85;100.00;70650.75;5092446;28;20486;-84
2022/04/14 06:41:39;;;;;;;1.83;1.20;;;;;;;-143.85;100.00;70650.75;5092551;28;20027;-84
2022/04/14 06:44:06;;;;;;;1.30;1.02;;;;;;;-143.85;100.00;70650.75;5093660;28;20023;-85
2022/04/14 06:46:31;;;;;;;1.73;1.15;;;;;;;-143.85;100.00;70650.75;5092663;28;20192;-85
2022/04/14 06:48:57;;;;;;;4.57;1.27;;;;;;;-143.85;100.00;70650.75;5092610;28;20514;-85
2022/04/14 06:51:22;;;;;;;1.55;1.33;;;;;;;-143.85;100.00;70650.75;5093706;28;20057;-85
2022/04/14 06:53:48;;;;;;;1.30;1.13;;;;;;;-143.85;100.00;70650.75;5092468;28;20032;-85
2022/04/14 06:56:14;;;;;;;1.48;1.38;;;;;;;-143.85;100.00;70650.75;5092419;28;20052;-85
2022/04/14 06:58:41;;;;;;;5.20;2.13;;;;;;;-143.85;100.00;70650.75;5092513;28;20028;-85
2022/04/14 07:01:07;;;;;;;5.70;1.30;;;;;;;-143.85;100.00;70650.75;5093439;28;20043;-85
2022/04/14 07:03:32;;;;;;;2.28;1.42;;;;;;;-143.85;100.00;70650.75;5092180;28;20479;-84
2022/04/14 07:06:00;;;;;;;2.42;1.13;;;;;;;-143.85;100.00;70650.75;5092749;28;20024;-84
2022/04/14 07:08:26;;;;;;;2.05;1.58;;;;;;;-143.85;100.00;70650.75;5092727;28;20458;-85
2022/04/14 07:10:52;;;;;;;2.53;1.27;;;;;;;-143.85;100.00;70650.75;5092175;28;20028;-84
2022/04/14 07:13:17;;;;;;;2.40;1.10;;;;;;;-143.85;100.00;70650.75;5091137;28;20028;-83
2022/04/14 07:15:44;;;;;;;1.55;1.40;;;;;;;-143.85;100.00;70650.75;5091903;28;20027;-84
2022/04/14 07:18:09;;;;;;;3.67;1.63;;;;;;;-143.85;100.00;70650.75;5092023;28;20022;-84
2022/04/14 07:20:35;;;;;;;1.30;1.00;;;;;;;-143.85;100.00;70650.75;5092123;28;20453;-84
2022/04/14 07:23:02;;;;;;;1.30;0.90;;;;;;;-143.85;100.00;70650.75;5091833;28;20028;-84
2022/04/14 07:25:30;;;;;;;1.65;1.40;;;;;;;-143.85;100.00;70650.75;5093029;28;20027;-83
2022/04/14 07:27:56;;;;;;;1.65;1.13;;;;;;;-143.85;100.00;70650.75;5093189;28;20058;-83
2022/04/14 07:30:23;;;;;;;1.42;1.33;;;;;;;-143.85;100.00;70650.75;5093022;28;20028;-84
2022/04/14 07:32:49;;;;;;;2.92;1.38;;;;;;;-143.85;100.00;70650.75;5093111;28;20077;-84
2022/04/14 07:35:15;;;;;;;1.90;1.02;;;;;;;-143.85;100.00;70650.75;5091912;28;20472;-84
2022/04/14 07:37:42;;;;;;;1.70;1.30;;;;;;;-143.85;100.00;70650.75;5092196;28;20028;-83
2022/04/14 07:40:08;;;;;;;1.80;1.58;;;;;;;-143.85;100.00;70650.75;5091783;28;20068;-83
2022/04/14 07:42:39;;;;;;;2.75;2.10;;;;;;;-143.85;100.00;70650.75;5091722;28;20024;-83
2022/04/14 07:45:06;;;;;;;3.67;1.02;;;;;;;-143.85;100.00;70650.75;5091837;28;20056;-84
2022/04/14 07:47:31;;;;;;;2.05;1.20;;;;;;;-143.85;100.00;70650.75;5091723;28;20028;-83
2022/04/14 07:49:57;;;;;;;1.38;1.23;;;;;;;-143.85;100.00;70650.75;5093089;28;20036;-84
2022/04/14 07:52:23;;;;;;;1.60;1.20;;;;;;;-143.85;100.00;70650.75;5091890;28;20027;-84
2022/04/14 07:54:48;;;;;;;1.88;1.20;;;;;;;-143.85;100.00;70650.75;5092984;28;20032;-83
2022/04/14 07:57:13;;;;;;;2.20;1.38;;;;;;;-143.85;100.00;70650.75;5091790;28;20031;-84
2022/04/14 07:59:39;;;;;;;1.80;1.30;;;;;;;-143.85;100.00;70650.75;5091712;28;20024;-83
2022/04/14 08:02:05;;;;;;;2.40;1.80;;;;;;;-143.85;100.00;70650.75;5090965;28;20048;-82
2022/04/14 08:04:31;;;;;;;1.10;0.98;;;;;;;-143.85;100.00;70650.75;5091545;28;20032;-84
2022/04/14 08:06:57;;;;;;;4.13;1.60;;;;;;;-143.85;100.00;70650.75;5091504;28;20617;-84
2022/04/14 08:09:24;;;;;;;4.47;1.35;;;;;;;-143.85;100.00;70650.75;5091287;28;20119;-83
2022/04/14 08:11:50;;;;;;;1.55;0.90;;;;;;;-143.85;100.00;70650.75;5091044;28;20224;-84
2022/04/14 08:14:15;;;;;;;2.22;1.55;;;;;;;-143.85;100.00;70650.75;5091439;28;20028;-83
2022/04/14 08:16:41;;;;;;;3.45;1.42;;;;;;;-143.85;100.00;70650.75;5092367;28;20032;-83
2022/04/14 08:19:06;;;;;;;11.52;1.48;;;;;;;-143.85;100.00;70650.75;5091586;28;20028;-83
2022/04/14 08:21:31;;;;;;;4.35;1.88;;;;;;;-143.85;100.00;70650.75;5092196;28;20034;-84
2022/04/14 08:23:58;;;;;;;1.60;1.45;;;;;;;-143.85;100.00;70650.75;5091458;28;20032;-83
2022/04/14 08:26:25;;;;;;;2.83;1.42;;;;;;;-143.85;100.00;70650.75;5096157;28;20023;-84
2022/04/14 08:28:53;;;;;;;2.03;1.50;;;;;;;-143.85;100.00;70650.75;5095106;28;20478;-85
2022/04/14 08:31:21;;;;;;;3.67;2.33;;;;;;;-143.85;100.00;70650.75;5096121;28;20112;-84
2022/04/14 08:33:48;;;;;;;4.82;1.83;;;;;;;-143.85;100.00;70650.75;5095516;28;20028;-85
2022/04/14 08:36:15;;;;;;;6.07;1.50;;;;;;;-143.85;100.00;70650.75;5095229;28;20024;-83
2022/04/14 08:38:43;;;;;;;0.70;0.70;;;;;;;-143.85;100.00;70650.75;5094339;28;20020;-83
2022/04/14 08:41:10;;;;;;;;;;;;;;;-143.85;100.00;70650.75;5095928;28;20431;-83
2022/04/14 08:43:36;;;;;;;1.95;1.17;;;;;;;-143.85;100.00;70650.75;5094334;28;20283;-84
2022/04/14 08:48:01;;;;;;;1.27;1.17;;;;;;;20.49;29.75;99354.66;5108816;27;1373218;-83
2022/04/14 08:50:27;;;;;;;1.35;1.20;;;;;;;21.10;28.85;99378.69;5129526;28;20027;-82
2022/04/14 08:52:53;;;;;;;1.83;1.10;;;;;;;21.44;29.14;99388.34;5129850;28;20035;-82
2022/04/14 08:55:19;;;;;;;1.27;1.08;;;;;;;21.42;27.23;99395.72;5130178;28;20024;-82
2022/04/14 08:57:45;;;;;;;2.92;1.83;;;;;;;20.99;27.18;99339.22;5130109;28;20356;-82
2022/04/14 09:00:16;;;;;;;1.50;1.27;;;;;;;21.09;26.10;99365.94;5129813;28;20432;-83
2022/04/14 09:02:45;;;;;;;2.15;1.08;;;;;;;21.41;26.44;99380.88;5131401;27;20113;-82
2022/04/14 09:05:12;;;;;;;2.80;1.23;;;;;;;20.99;27.25;99330.03;5129851;28;20016;-83
2022/04/14 09:07:38;;;;;;;3.85;1.10;;;;;;;20.98;28.13;99346.09;5129943;28;20023;-82
2022/04/14 09:10:07;;;;;;;3.78;2.10;;;;;;;21.07;27.56;99331.94;5131219;27;20023;-85
2022/04/14 09:12:35;;;;;;;2.38;1.63;;;;;;;21.24;27.98;99368.69;5131074;27;20080;-82
2022/04/14 09:15:01;;;;;;;3.78;1.50;;;;;;;21.48;27.36;99354.38;5129715;28;20178;-83
2022/04/14 09:17:27;;;;;;;1.48;1.38;;;;;;;21.36;27.89;99349.91;5128006;28;20128;-82
2022/04/14 09:19:52;;;;;;;1.95;1.35;;;;;;;21.57;28.18;99348.59;5117142;28;20084;-83
2022/04/14 09:22:19;;;;;;;1.85;1.50;;;;;;;21.73;27.01;99342.38;5127635;28;20567;-83
2022/04/14 09:24:55;;;;;;;2.50;1.33;;;;;;;21.91;27.39;99330.75;5129631;28;20110;-82
2022/04/14 09:27:31;;;;;;;1.27;1.17;;;;;;;21.78;26.81;99305.06;5129401;28;20016;-82
2022/04/14 09:30:03;;;;;;;2.80;1.40;;;;;;;22.13;28.52;99323.78;5109915;28;20070;-82
2022/04/14 09:32:34;;;;;;;4.35;1.90;;;;;;;21.80;26.27;99344.75;5109405;28;20053;-81
2022/04/14 09:35:04;;;;;;;2.72;1.27;;;;;;;21.73;25.94;99333.94;5108904;28;20403;-82
2022/04/14 09:37:30;;;;;;;2.55;1.35;;;;;;;21.70;28.23;99334.91;5109034;28;20016;-83
2022/04/14 09:39:57;;;;;;;2.35;0.98;;;;;;;22.24;27.42;99341.53;5108724;28;20028;-84
2022/04/14 09:42:30;;;;;;;6.10;1.75;;;;;;;22.04;26.17;99301.47;5105728;28;20028;-81
2022/04/14 09:45:15;;;;;;;5.03;1.10;;;;;;;21.86;25.15;99330.72;5107819;28;20023;-82
2022/04/14 09:47:40;;;;;;;2.40;1.33;;;;;;;21.28;25.08;99329.13;5109258;28;20051;-82
2022/04/14 09:50:42;;;;;;;3.67;1.00;;;;;;;21.30;27.41;99298.47;5108319;28;20024;-81
2022/04/14 09:53:12;;;;;;;1.40;1.30;;;;;;;21.40;26.13;99336.38;5108081;28;20020;-82
2022/04/14 09:55:40;;;;;;;0.82;0.82;;;;;;;21.51;25.32;99314.81;5107870;28;20020;-83
2022/04/14 09:58:09;;;;;;;1.40;1.30;;;;;;;21.67;25.47;99327.47;5102595;28;20028;-82
2022/04/14 10:00:52;;;;;;;2.03;1.10;;;;;;;21.92;26.45;99320.28;5094229;28;20020;-81
2022/04/14 10:03:26;;;;;;;2.40;1.08;;;;;;;21.98;26.66;99314.72;5094986;28;20016;-82
2022/04/14 10:05:53;;;;;;;0.80;0.73;;;;;;;22.06;25.97;99273.63;5094972;28;20070;-83
2022/04/14 10:08:19;;;;;;;1.37;1.20;;;;;;;22.02;25.87;99321.66;5091568;28;20017;-82
2022/04/14 10:10:48;;;;;;;6.10;2.47;;;;;;;21.74;27.46;99334.69;5073370;28;20396;-81
2022/04/14 10:13:16;;;;;;;3.75;1.58;;;;;;;22.36;28.26;99313.47;5074948;28;20065;-82
2022/04/14 10:15:44;;;;;;;2.25;1.20;;;;;;;21.97;25.32;99313.97;5073764;28;20025;-81
2022/04/14 10:18:11;;;;;;;0.75;0.70;;;;;;;21.75;25.95;99320.16;5073929;28;20016;-82
2022/04/14 10:20:38;;;;;;;2.30;1.23;;;;;;;21.98;24.61;99317.53;5073478;28;20032;-82
2022/04/14 10:23:05;;;;;;;1.40;1.30;;;;;;;21.76;26.13;99282.28;5073816;28;20044;-82
2022/04/14 10:25:32;;;;;;;1.38;0.98;;;;;;;22.08;25.68;99310.44;5073666;28;20496;-82
2022/04/14 10:27:58;;;;;;;1.58;1.40;;;;;;;22.19;25.52;99313.34;5073342;28;20028;-82
2022/04/14 10:30:24;;;;;;;3.05;1.15;;;;;;;22.40;25.38;99303.50;5074646;28;20032;-82
2022/04/14 10:32:53;;;;;;;1.80;1.70;;;;;;;22.42;23.29;99305.84;5074523;28;20088;-83
2022/04/14 10:35:18;;;;;;;1.48;0.95;;;;;;;22.03;24.84;99302.75;5074562;28;20079;-82
2022/04/14 10:37:51;;;;;;;1.23;1.08;;;;;;;22.75;24.30;99282.72;5083643;28;20484;-82
2022/04/14 10:40:16;;;;;;;1.50;1.40;;;;;;;22.92;25.96;99289.19;5094611;28;20024;-82
2022/04/14 10:42:51;;;;;;;2.28;1.40;;;;;;;22.88;26.55;99247.16;5093131;28;20031;-82
2022/04/14 10:45:18;;;;;;;2.35;2.05;;;;;;;22.59;25.04;99284.16;5095139;28;20035;-82
2022/04/14 10:47:50;;;;;;;4.38;1.63;;;;;;;22.77;25.89;99299.91;5093062;28;20063;-82
2022/04/14 10:50:25;;;;;;;2.10;1.20;;;;;;;22.70;27.92;99276.53;5093718;28;20572;-83
2022/04/14 10:53:13;;;;;;;1.70;1.50;;;;;;;22.80;25.94;99256.59;5094419;28;20024;-82
2022/04/14 10:55:45;;;;;;;2.15;1.50;;;;;;;23.07;25.65;99278.50;5095088;28;20019;-83
2022/04/14 10:58:38;;;;;;;3.80;1.38;;;;;;;22.83;24.55;99287.38;5094497;28;20057;-81
2022/04/14 11:01:04;;;;;;;7.72;1.58;;;;;;;22.43;23.62;99277.16;5087271;28;20028;-80
2022/04/14 11:03:45;;;;;;;1.67;1.58;;;;;;;22.81;23.86;99239.19;5093124;28;20078;-81
2022/04/14 11:06:47;;;;;;;1.40;1.25;;;;;;;22.82;23.17;99270.97;5094034;28;20020;-81
2022/04/14 11:12:12;;;;;;;1.23;1.10;;;;;;;23.16;24.86;99283.88;5094015;28;20099;-82
2022/04/14 11:14:59;;;;;;;4.97;1.65;;;;;;;22.81;25.09;99246.88;5092724;28;20024;-80
2022/04/14 11:17:52;;;;;;;2.33;1.50;;;;;;;22.68;24.21;99276.25;5090452;28;20095;-82
2022/04/14 11:20:44;;;;;;;1.25;1.13;;;;;;;22.39;24.30;99227.97;5081720;28;20028;-82